createdAt,value
2023-04-06T00:01:25.019Z,100.00
2023-04-06T00:03:53.348Z,100.00
2023-04-06T00:06:21.675Z,100.00
2023-04-06T00:08:50.784Z,100.00
2023-04-06T00:11:19.540Z,100.00
2023-04-06T00:13:50.535Z,100.00
2023-04-06T00:16:22.403Z,100.00
2023-04-06T00:18:52.381Z,100.00
2023-04-06T00:21:23.391Z,100.00
2023-04-06T00:23:52.049Z,100.00
2023-04-06T00:26:23.373Z,100.00
2023-04-06T00:28:53.758Z,100.00
2023-04-06T00:31:25.768Z,100.00
2023-04-06T00:33:55.122Z,100.00
2023-04-06T00:36:23.514Z,100.00
2023-04-06T00:38:52.840Z,100.00
2023-04-06T00:41:21.725Z,100.00
2023-04-06T00:43:50.210Z,100.00
2023-04-06T00:46:18.864Z,100.00
2023-04-06T00:48:51.731Z,100.00
2023-04-06T00:51:22.475Z,100.00
2023-04-06T00:53:50.783Z,100.00
2023-04-06T00:56:22.239Z,100.00
2023-04-06T00:58:56.971Z,100.00
2023-04-06T01:01:29.711Z,100.00
2023-04-06T01:04:03.887Z,100.00
2023-04-06T01:06:35.445Z,100.00
2023-04-06T01:09:05.008Z,100.00
2023-04-06T01:11:35.366Z,100.00
2023-04-06T01:14:06.679Z,100.00
2023-04-06T01:16:56.408Z,100.00
2023-04-06T01:19:30.782Z,100.00
2023-04-06T01:22:02.892Z,100.00
2023-04-06T01:24:35.465Z,100.00
2023-04-06T01:27:14.181Z,100.00
2023-04-06T01:30:05.214Z,100.00
2023-04-06T01:32:46.042Z,100.00
2023-04-06T01:35:20.556Z,100.00
2023-04-06T01:38:01.266Z,100.00
2023-04-06T01:40:39.627Z,100.00
2023-04-06T01:43:09.014Z,100.00
2023-04-06T01:45:47.355Z,100.00
2023-04-06T01:48:21.118Z,100.00
2023-04-06T01:50:50.138Z,100.00
2023-04-06T01:53:26.955Z,100.00
2023-04-06T01:56:03.480Z,100.00
2023-04-06T01:58:38.037Z,100.00
2023-04-06T02:01:06.763Z,100.00
2023-04-06T02:03:48.375Z,100.00
2023-04-06T02:06:17.109Z,100.00
2023-04-06T02:08:46.601Z,100.00
2023-04-06T02:11:21.966Z,100.00
2023-04-06T02:14:01.373Z,100.00
2023-04-06T02:16:33.568Z,100.00
2023-04-06T02:19:02.182Z,100.00
2023-04-06T02:21:30.826Z,100.00
2023-04-06T02:24:00.540Z,100.00
2023-04-06T02:26:31.387Z,100.00
2023-04-06T02:28:59.686Z,100.00
2023-04-06T02:31:29.378Z,100.00
2023-04-06T02:33:57.935Z,100.00
2023-04-06T02:36:27.091Z,100.00
2023-04-06T02:38:58.401Z,100.00
2023-04-06T02:41:28.005Z,100.00
2023-04-06T02:43:59.394Z,100.00
2023-04-06T02:46:40.252Z,100.00
2023-04-06T02:49:08.886Z,100.00
2023-04-06T02:51:38.152Z,100.00
2023-04-06T02:54:27.165Z,100.00
2023-04-06T02:56:56.039Z,100.00
2023-04-06T02:59:30.811Z,100.00
2023-04-06T03:02:10.331Z,100.00
2023-04-06T03:04:39.458Z,100.00
2023-04-06T03:07:26.311Z,100.00
2023-04-06T03:09:54.945Z,100.00
2023-04-06T03:12:23.614Z,100.00
2023-04-06T03:15:19.545Z,100.00
2023-04-06T03:17:53.060Z,100.00
2023-04-06T03:20:34.933Z,100.00
2023-04-06T03:23:04.437Z,100.00
2023-04-06T03:25:37.320Z,100.00
2023-04-06T03:28:08.719Z,100.00
2023-04-06T03:30:45.816Z,100.00
2023-04-06T03:33:16.397Z,100.00
2023-04-06T03:35:55.136Z,100.00
2023-04-06T03:38:27.868Z,100.00
2023-04-06T03:40:57.866Z,100.00
2023-04-06T03:43:29.035Z,100.00
2023-04-06T03:45:58.803Z,100.00
2023-04-06T03:48:27.745Z,100.00
2023-04-06T03:50:56.096Z,100.00
2023-04-06T03:53:25.391Z,100.00
2023-04-06T03:55:53.669Z,100.00
2023-04-06T03:58:23.941Z,100.00
2023-04-06T04:00:54.584Z,100.00
2023-04-06T04:03:28.118Z,100.00
2023-04-06T04:05:57.434Z,100.00
2023-04-06T04:08:28.708Z,100.00
2023-04-06T04:10:59.186Z,100.00
2023-04-06T04:13:28.236Z,100.00
2023-04-06T04:16:01.325Z,100.00
2023-04-06T04:18:33.394Z,100.00
2023-04-06T04:21:01.934Z,100.00
2023-04-06T04:23:31.673Z,100.00
2023-04-06T04:26:00.936Z,100.00
2023-04-06T04:28:29.211Z,100.00
2023-04-06T04:30:58.442Z,100.00
2023-04-06T04:33:27.640Z,100.00
2023-04-06T04:36:00.249Z,100.00
2023-04-06T04:38:35.498Z,100.00
2023-04-06T04:41:06.179Z,100.00
2023-04-06T04:43:37.304Z,100.00
2023-04-06T04:46:08.900Z,100.00
2023-04-06T04:48:43.205Z,100.00
2023-04-06T04:51:17.764Z,100.00
2023-04-06T04:54:09.468Z,100.00
2023-04-06T04:56:40.135Z,100.00
2023-04-06T04:59:24.187Z,100.00
2023-04-06T05:02:02.944Z,100.00
2023-04-06T05:04:46.395Z,100.00
2023-04-06T05:07:22.249Z,100.00
2023-04-06T05:09:56.675Z,100.00
2023-04-06T05:12:29.242Z,100.00
2023-04-06T05:15:09.673Z,100.00
2023-04-06T05:17:40.117Z,100.00
2023-04-06T05:20:10.839Z,100.00
2023-04-06T05:22:48.143Z,100.00
2023-04-06T05:25:18.122Z,100.00
2023-04-06T05:27:48.660Z,100.00
2023-04-06T05:30:30.632Z,100.00
2023-04-06T05:33:00.955Z,100.00
2023-04-06T05:35:38.973Z,100.00
2023-04-06T05:38:13.760Z,100.00
2023-04-06T05:40:42.591Z,100.00
2023-04-06T05:43:15.861Z,100.00
2023-04-06T05:45:47.729Z,100.00
2023-04-06T05:48:16.692Z,100.00
2023-04-06T05:50:49.576Z,100.00
2023-04-06T05:53:27.642Z,100.00
2023-04-06T05:55:59.491Z,100.00
2023-04-06T05:58:28.188Z,100.00
2023-04-06T06:00:59.909Z,100.00
2023-04-06T06:03:31.997Z,100.00
2023-04-06T06:06:05.152Z,100.00
2023-04-06T06:09:02.100Z,100.00
2023-04-06T06:11:34.035Z,100.00
2023-04-06T06:14:03.693Z,100.00
2023-04-06T06:16:36.388Z,100.00
2023-04-06T06:19:05.526Z,100.00
2023-04-06T06:21:34.801Z,100.00
2023-04-06T06:24:09.139Z,100.00
2023-04-06T06:26:38.838Z,100.00
2023-04-06T06:29:09.685Z,100.00
2023-04-06T06:31:41.115Z,100.00
2023-04-06T06:34:12.334Z,100.00
2023-04-06T06:36:41.988Z,100.00
2023-04-06T06:39:14.264Z,100.00
2023-04-06T06:41:42.853Z,100.00
2023-04-06T06:44:11.993Z,100.00
2023-04-06T06:46:41.155Z,100.00
2023-04-06T06:49:12.143Z,100.00
2023-04-06T06:51:40.836Z,100.00
2023-04-06T06:54:09.835Z,100.00
2023-04-06T06:56:40.558Z,100.00
2023-04-06T06:59:12.481Z,100.00
2023-04-06T07:01:41.288Z,100.00
2023-04-06T07:04:12.782Z,100.00
2023-04-06T07:06:41.461Z,100.00
2023-04-06T07:09:09.955Z,100.00
2023-04-06T07:11:39.846Z,99.97
2023-04-06T07:14:08.966Z,91.28
2023-04-06T07:16:38.003Z,95.76
2023-04-06T07:19:06.901Z,98.57
2023-04-06T07:21:37.615Z,96.71
2023-04-06T07:24:06.238Z,88.10
2023-04-06T07:26:34.718Z,86.89
2023-04-06T07:29:05.712Z,88.16
2023-04-06T07:31:34.544Z,86.14
2023-04-06T07:34:06.782Z,90.48
2023-04-06T07:36:36.573Z,84.65
2023-04-06T07:39:05.124Z,87.48
2023-04-06T07:41:33.572Z,78.06
2023-04-06T07:44:03.352Z,81.22
2023-04-06T07:46:33.422Z,75.32
2023-04-06T07:49:03.100Z,76.24
2023-04-06T07:51:35.146Z,75.54
2023-04-06T07:54:03.659Z,75.42
2023-04-06T07:56:32.372Z,71.92
2023-04-06T07:59:00.993Z,70.91
2023-04-06T08:01:30.507Z,71.47
2023-04-06T08:04:03.588Z,75.28
2023-04-06T08:06:32.373Z,73.33
2023-04-06T08:09:01.427Z,70.09
2023-04-06T08:11:29.745Z,69.12
2023-04-06T08:13:59.057Z,70.48
2023-04-06T08:16:27.687Z,68.94
2023-04-06T08:18:56.065Z,69.40
2023-04-06T08:21:26.738Z,68.46
2023-04-06T08:23:55.858Z,66.83
2023-04-06T08:26:26.442Z,64.69
2023-04-06T08:28:56.608Z,64.22
2023-04-06T08:31:25.907Z,62.62
2023-04-06T08:33:56.149Z,62.67
2023-04-06T08:36:25.912Z,61.50
2023-04-06T08:38:54.880Z,61.34
2023-04-06T08:41:23.159Z,62.50
2023-04-06T08:44:00.514Z,62.25
2023-04-06T08:46:32.521Z,60.19
2023-04-06T08:49:04.124Z,59.21
2023-04-06T08:51:37.528Z,59.52
2023-04-06T08:54:07.386Z,58.24
2023-04-06T08:56:40.437Z,58.50
2023-04-06T08:59:11.768Z,57.27
2023-04-06T09:01:43.546Z,58.99
2023-04-06T09:04:13.938Z,58.25
2023-04-06T09:06:43.985Z,60.55
2023-04-06T09:09:12.971Z,58.97
2023-04-06T09:11:46.626Z,58.92
2023-04-06T09:14:16.076Z,51.82
2023-04-06T09:16:48.194Z,54.69
2023-04-06T09:19:18.170Z,51.30
2023-04-06T09:21:48.327Z,53.38
2023-04-06T09:24:19.487Z,52.76
2023-04-06T09:26:49.081Z,51.19
2023-04-06T09:29:27.581Z,54.09
2023-04-06T09:32:05.253Z,55.25
2023-04-06T09:34:33.953Z,52.97
2023-04-06T09:37:14.459Z,52.28
2023-04-06T09:39:43.652Z,51.64
2023-04-06T09:42:14.572Z,51.20
2023-04-06T09:44:43.399Z,53.69
2023-04-06T09:47:12.179Z,48.98
2023-04-06T09:49:42.452Z,46.08
2023-04-06T09:52:14.593Z,48.15
2023-04-06T09:54:45.729Z,51.81
2023-04-06T09:57:27.426Z,52.72
2023-04-06T10:00:09.204Z,52.25
2023-04-06T10:02:48.130Z,52.05
2023-04-06T10:05:22.554Z,51.77
2023-04-06T10:08:00.185Z,51.49
2023-04-06T10:10:33.157Z,49.79
2023-04-06T10:13:03.767Z,48.27
2023-04-06T10:15:33.245Z,50.02
2023-04-06T10:18:02.601Z,50.34
2023-04-06T10:20:38.072Z,46.96
2023-04-06T10:23:15.226Z,44.54
2023-04-06T10:25:54.467Z,46.01
2023-04-06T10:28:23.236Z,46.78
2023-04-06T10:30:51.878Z,47.28
2023-04-06T10:33:22.233Z,46.10
2023-04-06T10:35:52.089Z,43.73
2023-04-06T10:38:23.044Z,45.85
2023-04-06T10:40:51.648Z,46.11
2023-04-06T10:43:21.940Z,44.58
2023-04-06T10:45:58.119Z,46.53
2023-04-06T10:48:27.918Z,42.94
2023-04-06T10:50:56.466Z,45.11
2023-04-06T10:53:27.562Z,44.89
2023-04-06T10:55:58.845Z,46.59
2023-04-06T10:58:28.641Z,48.10
2023-04-06T11:00:58.311Z,42.23
2023-04-06T11:03:27.783Z,41.92
2023-04-06T11:05:57.543Z,41.68
2023-04-06T11:08:31.138Z,42.78
2023-04-06T11:11:07.714Z,42.23
2023-04-06T11:13:41.350Z,37.78
2023-04-06T11:16:14.602Z,40.98
2023-04-06T11:18:54.313Z,40.25
2023-04-06T11:21:23.011Z,40.25
2023-04-06T11:23:52.860Z,38.94
2023-04-06T11:26:22.744Z,39.65
2023-04-06T11:28:51.492Z,40.11
2023-04-06T11:31:20.077Z,38.44
2023-04-06T11:33:57.305Z,41.55
2023-04-06T11:36:26.215Z,38.19
2023-04-06T11:38:56.102Z,38.56
2023-04-06T11:41:26.341Z,38.02
2023-04-06T11:43:58.114Z,37.10
2023-04-06T11:46:28.441Z,37.58
2023-04-06T11:49:01.285Z,35.78
2023-04-06T11:51:30.516Z,36.47
2023-04-06T11:54:00.450Z,37.92
2023-04-06T11:56:30.158Z,35.59
2023-04-06T11:59:00.884Z,36.16
2023-04-06T12:01:32.083Z,35.78
2023-04-06T12:04:03.675Z,34.26
2023-04-06T12:06:34.470Z,35.62
2023-04-06T12:09:04.673Z,38.38
2023-04-06T12:11:35.210Z,37.73
2023-04-06T12:14:06.109Z,38.19
2023-04-06T12:16:35.344Z,35.21
2023-04-06T12:19:04.056Z,36.93
2023-04-06T12:21:37.318Z,35.25
2023-04-06T12:24:07.358Z,36.01
2023-04-06T12:26:35.858Z,38.57
2023-04-06T12:29:07.972Z,37.60
2023-04-06T12:31:37.887Z,38.17
2023-04-06T12:34:09.168Z,36.11
2023-04-06T12:36:39.225Z,35.64
2023-04-06T12:39:09.271Z,36.79
2023-04-06T12:41:37.678Z,35.81
2023-04-06T12:44:06.064Z,34.90
2023-04-06T12:46:36.198Z,36.56
2023-04-06T12:49:04.638Z,36.11
2023-04-06T12:51:34.299Z,36.57
2023-04-06T12:54:02.799Z,36.25
2023-04-06T12:56:33.659Z,34.56
2023-04-06T12:59:04.919Z,34.78
2023-04-06T13:01:34.251Z,35.39
2023-04-06T13:04:02.828Z,35.23
2023-04-06T13:06:32.558Z,34.46
2023-04-06T13:09:01.198Z,34.61
2023-04-06T13:11:30.549Z,35.96
2023-04-06T13:14:00.999Z,36.22
2023-04-06T13:16:30.759Z,37.26
2023-04-06T13:18:59.707Z,36.32
2023-04-06T13:21:28.512Z,37.24
2023-04-06T13:23:57.992Z,36.01
2023-04-06T13:26:26.880Z,38.56
2023-04-06T13:28:57.190Z,34.93
2023-04-06T13:31:27.434Z,33.90
2023-04-06T13:33:55.795Z,35.21
2023-04-06T13:36:24.563Z,34.93
2023-04-06T13:38:56.438Z,35.61
2023-04-06T13:41:27.509Z,35.30
2023-04-06T13:43:56.014Z,35.97
2023-04-06T13:46:25.202Z,35.71
2023-04-06T13:48:55.748Z,36.32
2023-04-06T13:51:24.474Z,35.84
2023-04-06T13:53:54.562Z,35.08
2023-04-06T13:56:22.878Z,35.63
2023-04-06T13:58:51.089Z,35.58
2023-04-06T14:01:19.440Z,34.55
2023-04-06T14:03:49.014Z,35.79
2023-04-06T14:06:30.464Z,35.04
2023-04-06T14:09:00.605Z,35.45
2023-04-06T14:11:28.944Z,35.85
2023-04-06T14:13:58.706Z,36.05
2023-04-06T14:16:27.453Z,36.91
2023-04-06T14:18:56.530Z,36.73
2023-04-06T14:21:27.669Z,37.78
2023-04-06T14:23:57.988Z,38.45
2023-04-06T14:26:28.623Z,38.23
2023-04-06T14:28:56.955Z,36.40
2023-04-06T14:31:25.826Z,35.61
2023-04-06T14:33:55.562Z,36.88
2023-04-06T14:36:24.190Z,36.48
2023-04-06T14:38:54.293Z,37.41
2023-04-06T14:41:28.420Z,37.86
2023-04-06T14:43:57.657Z,37.18
2023-04-06T14:46:26.545Z,36.63
2023-04-06T14:48:57.000Z,36.22
2023-04-06T14:51:29.433Z,34.79
2023-04-06T14:53:59.822Z,35.87
2023-04-06T14:56:28.519Z,37.51
2023-04-06T14:59:00.071Z,35.79
2023-04-06T15:01:29.702Z,35.51
2023-04-06T15:03:58.145Z,36.07
2023-04-06T15:06:26.620Z,37.46
2023-04-06T15:08:56.176Z,35.26
2023-04-06T15:11:25.805Z,35.19
2023-04-06T15:13:56.536Z,36.65
2023-04-06T15:16:24.883Z,35.57
2023-04-06T15:18:53.235Z,34.89
2023-04-06T15:21:21.538Z,37.24
2023-04-06T15:23:50.498Z,36.43
2023-04-06T15:26:18.698Z,36.05
2023-04-06T15:28:49.380Z,36.00
2023-04-06T15:34:09.546Z,35.88
2023-04-06T15:36:38.258Z,36.84
2023-04-06T15:39:09.666Z,36.29
2023-04-06T15:41:38.091Z,35.59
2023-04-06T15:44:07.738Z,36.63
2023-04-06T15:46:35.968Z,37.89
2023-04-06T15:49:05.347Z,37.97
2023-04-06T15:51:34.090Z,37.30
2023-04-06T15:54:03.634Z,37.72
2023-04-06T15:56:33.412Z,37.47
2023-04-06T15:59:02.359Z,36.98
2023-04-06T16:01:32.324Z,36.58
2023-04-06T16:04:00.956Z,36.93
2023-04-06T16:06:29.173Z,37.90
2023-04-06T16:08:57.312Z,37.72
2023-04-06T16:11:26.143Z,38.89
2023-04-06T16:13:55.721Z,37.85
2023-04-06T16:16:25.539Z,39.16
2023-04-06T16:18:56.381Z,38.71
2023-04-06T16:21:26.764Z,38.56
2023-04-06T16:23:56.116Z,37.84
2023-04-06T16:26:27.109Z,37.75
2023-04-06T16:28:55.637Z,37.28
2023-04-06T16:31:25.665Z,38.73
2023-04-06T16:33:56.919Z,38.64
2023-04-06T16:36:25.466Z,41.79
2023-04-06T16:38:54.290Z,40.84
2023-04-06T16:41:22.989Z,41.63
2023-04-06T16:43:52.046Z,41.54
2023-04-06T16:46:21.537Z,42.10
2023-04-06T16:48:50.067Z,41.99
2023-04-06T16:51:19.676Z,41.77
2023-04-06T16:53:49.539Z,42.34
2023-04-06T16:56:17.967Z,42.54
2023-04-06T16:58:46.627Z,42.86
2023-04-06T17:01:22.372Z,42.68
2023-04-06T17:03:51.235Z,43.14
2023-04-06T17:06:21.620Z,44.01
2023-04-06T17:08:53.589Z,43.81
2023-04-06T17:11:28.166Z,44.43
2023-04-06T17:14:01.146Z,43.47
2023-04-06T17:16:29.689Z,44.10
2023-04-06T17:18:58.388Z,45.05
2023-04-06T17:21:28.672Z,44.61
2023-04-06T17:23:57.148Z,44.71
2023-04-06T17:26:25.536Z,44.84
2023-04-06T17:28:54.073Z,45.57
2023-04-06T17:31:22.537Z,46.73
2023-04-06T17:33:51.021Z,46.78
2023-04-06T17:36:20.645Z,46.67
2023-04-06T17:38:52.432Z,47.48
2023-04-06T17:41:21.512Z,48.25
2023-04-06T17:43:51.593Z,49.49
2023-04-06T17:46:25.449Z,49.75
2023-04-06T17:48:53.602Z,50.99
2023-04-06T17:51:21.925Z,51.12
2023-04-06T17:53:50.565Z,51.85
2023-04-06T17:56:21.743Z,52.46
2023-04-06T18:01:19.329Z,54.42
2023-04-06T18:03:47.464Z,55.20
2023-04-06T18:06:17.611Z,55.35
2023-04-06T18:08:46.077Z,55.28
2023-04-06T18:11:18.582Z,56.02
2023-04-06T18:13:49.597Z,58.22
2023-04-06T18:16:20.152Z,61.67
2023-04-06T18:18:48.974Z,64.29
2023-04-06T18:21:17.105Z,63.53
2023-04-06T18:23:45.522Z,63.56
2023-04-06T18:26:18.553Z,65.23
2023-04-06T18:28:49.671Z,70.15
2023-04-06T18:31:18.395Z,75.89
2023-04-06T18:33:46.915Z,75.44
2023-04-06T18:36:15.708Z,76.82
2023-04-06T18:38:45.584Z,81.72
2023-04-06T18:41:13.872Z,87.12
2023-04-06T18:43:42.156Z,82.65
2023-04-06T18:46:15.699Z,84.01
2023-04-06T18:48:44.752Z,85.78
2023-04-06T18:51:13.150Z,90.69
2023-04-06T18:53:42.288Z,98.58
2023-04-06T18:56:18.766Z,100.00
2023-04-06T18:58:48.659Z,100.00
2023-04-06T19:01:27.112Z,100.00
2023-04-06T19:03:57.067Z,100.00
2023-04-06T19:06:27.923Z,100.00
2023-04-06T19:08:56.874Z,100.00
2023-04-06T19:11:26.138Z,100.00
2023-04-06T19:13:55.173Z,100.00
2023-04-06T19:16:26.421Z,100.00
2023-04-06T19:18:54.737Z,100.00
2023-04-06T19:21:27.138Z,100.00
2023-04-06T19:23:56.506Z,100.00
2023-04-06T19:26:27.909Z,100.00
2023-04-06T19:28:58.740Z,100.00
2023-04-06T19:31:30.631Z,100.00
2023-04-06T19:33:58.855Z,100.00
2023-04-06T19:36:28.252Z,100.00
2023-04-06T19:38:56.470Z,100.00
2023-04-06T19:41:25.816Z,100.00
2023-04-06T19:43:54.172Z,100.00
2023-04-06T19:46:23.024Z,100.00
2023-04-06T19:48:52.702Z,100.00
2023-04-06T19:51:21.122Z,100.00
2023-04-06T19:53:49.222Z,100.00
2023-04-06T19:56:17.755Z,100.00
2023-04-06T19:58:45.850Z,100.00
2023-04-06T20:01:14.153Z,100.00
2023-04-06T20:03:43.812Z,100.00
2023-04-06T20:06:13.449Z,100.00
2023-04-06T20:08:41.935Z,100.00
2023-04-06T20:11:11.186Z,100.00
2023-04-06T20:13:40.125Z,100.00
2023-04-06T20:16:08.424Z,100.00
2023-04-06T20:18:37.379Z,100.00
2023-04-06T20:21:06.092Z,100.00
2023-04-06T20:23:37.483Z,100.00
2023-04-06T20:26:09.190Z,100.00
2023-04-06T20:28:39.301Z,100.00
2023-04-06T20:31:08.340Z,100.00
2023-04-06T20:33:37.240Z,100.00
2023-04-06T20:36:05.864Z,100.00
2023-04-06T20:38:36.249Z,100.00
2023-04-06T20:41:04.901Z,100.00
2023-04-06T20:43:33.257Z,100.00
2023-04-06T20:46:02.851Z,100.00
2023-04-06T20:48:33.681Z,100.00
2023-04-06T20:51:03.351Z,100.00
2023-04-06T20:53:32.033Z,100.00
2023-04-06T20:56:02.396Z,100.00
2023-04-06T20:58:30.671Z,100.00
2023-04-06T21:01:03.615Z,100.00
2023-04-06T21:03:32.200Z,100.00
2023-04-06T21:06:14.296Z,100.00
2023-04-06T21:08:42.609Z,100.00
2023-04-06T21:11:12.420Z,100.00
2023-04-06T21:13:49.846Z,100.00
2023-04-06T21:16:22.804Z,100.00
2023-04-06T21:18:52.784Z,100.00
2023-04-06T21:21:21.166Z,100.00
2023-04-06T21:23:52.837Z,100.00
2023-04-06T21:26:32.231Z,100.00
2023-04-06T21:29:04.937Z,100.00
2023-04-06T21:31:36.833Z,100.00
2023-04-06T21:34:14.693Z,100.00
2023-04-06T21:36:50.968Z,100.00
2023-04-06T21:39:19.177Z,100.00
2023-04-06T21:41:48.865Z,100.00
2023-04-06T21:44:17.333Z,100.00
2023-04-06T21:46:48.542Z,100.00
2023-04-06T21:49:18.332Z,100.00
2023-04-06T21:51:48.796Z,100.00
2023-04-06T21:54:17.582Z,100.00
2023-04-06T21:56:48.328Z,100.00
2023-04-06T21:59:18.406Z,100.00
2023-04-06T22:01:46.964Z,100.00
2023-04-06T22:04:16.389Z,100.00
2023-04-06T22:06:45.117Z,100.00
2023-04-06T22:09:13.704Z,100.00
2023-04-06T22:11:42.422Z,100.00
2023-04-06T22:14:11.398Z,100.00
2023-04-06T22:16:41.291Z,100.00
2023-04-06T22:19:09.495Z,100.00
2023-04-06T22:21:38.096Z,100.00
2023-04-06T22:24:08.448Z,100.00
2023-04-06T22:26:36.609Z,100.00
2023-04-06T22:29:05.628Z,100.00
2023-04-06T22:31:34.596Z,100.00
2023-04-06T22:34:05.188Z,100.00
2023-04-06T22:36:33.624Z,100.00
2023-04-06T22:39:02.416Z,100.00
2023-04-06T22:41:31.041Z,100.00
2023-04-06T22:44:01.526Z,100.00
2023-04-06T22:46:30.679Z,100.00
2023-04-06T22:48:59.768Z,100.00
2023-04-06T22:51:29.485Z,100.00
2023-04-06T22:53:57.887Z,100.00
2023-04-06T22:56:26.112Z,100.00
2023-04-06T22:58:56.889Z,100.00
2023-04-06T23:01:25.663Z,100.00
2023-04-06T23:03:56.604Z,100.00
2023-04-06T23:06:28.386Z,100.00
2023-04-06T23:08:59.554Z,100.00
2023-04-06T23:11:30.902Z,100.00
2023-04-06T23:13:59.375Z,100.00
2023-04-06T23:16:27.814Z,100.00
2023-04-06T23:18:56.197Z,100.00
2023-04-06T23:21:24.358Z,100.00
2023-04-06T23:23:52.962Z,100.00
2023-04-06T23:26:24.386Z,100.00
2023-04-06T23:28:53.050Z,100.00
2023-04-06T23:31:21.354Z,100.00
2023-04-06T23:33:49.694Z,100.00
2023-04-06T23:36:17.996Z,100.00
2023-04-06T23:38:46.254Z,100.00
2023-04-06T23:41:16.091Z,100.00
2023-04-06T23:43:48.250Z,100.00
2023-04-06T23:46:18.177Z,100.00
2023-04-06T23:48:47.164Z,100.00
2023-04-06T23:51:15.988Z,100.00
2023-04-06T23:53:44.217Z,100.00
2023-04-06T23:56:12.985Z,100.00
2023-04-06T23:58:42.204Z,100.00
